VA89 weather

Chance Airport
Davis Wharf, Virginia, United States

Public forecast

Using degrees Fahrenheit for public forecast. Weather courtesy of forecast.io.

METAR (pilot weather report)

Closest report is Accomack County Airport, 9.3 nm (17.2 km) ENE. Retrieved 2019/09/17 03:35 UTC (0 seconds ago):

KMFV 170335Z AUTO 00000KT 10SM OVC120 22/21 A2998 RMK AO2 T02230214

TAF (pilot weather forecast)

Forecast is more than 6 hours old.

Closest forecast is Langley Air Force Base, 35.6 nm (65.9 km) SW. Retrieved 2019/09/16 17:13 UTC (10 hours ago):

TAF KLFI 161700Z 1617/1723 09006KT 9999 FEW015 QNH2994INS BECMG 1713/1714 07012G18KT 9999 FEW020 BKN080 QNH3001INS BECMG 1719/1720 05015G25KT 4800 -SHRA FEW020 BKN080 QNH3001INS TX29/1619Z TN20/1708Z